Grand Coulee, WA

12:04 AM PDT on August 20, 2014 (GMT -0700)
3 miles ESE of Grand Coulee Dam, in Lincoln County, WA | Change Station
CLOSE
Current Station
Personal Weather Station
Location: Grand Coulee, WA
Elevation: 1575 ft
Nearby Weather Stations

Elev 1575 ft 47.92 °N, 118.94 °W | Updated 4 minutes ago

Clear
Clear
73.0 °F
Feels Like 77 °F
N
0.0
Wind Variable Wind from WSW
Gusts 14.0 mph

Today
High -- | Low -- °F
--% Chance of Precip.
Yesterday
High -- | Low -- °F
Precip. -- in
5:57 AM 7:59 PM
Waning Crescent, 24% visible
Pressure 29.64 in
Visibility 10.0 miles
Clouds Clear
Heat Index 77 °F
Dew Point 43 °F
Humidity 34%
Rainfall 0.00 in
Snow Depth Not available.
UV 0 out of 12
Pollen 7.00 out of 12
Air Quality Not available.
Flu Activity Not available.
METAR KOMK 200653Z AUTO 34007KT 10SM CLR 22/07 A2967 RMK AO2 SLP036 T02220072

More Conditions Fewer Conditions

Pressure 29.64 in
Visibility 10.0 miles
Clouds Clear
Heat Index 77 °F
Dew Point 43 °F
Humidity 34%
Rainfall 0.00 in
Snow Depth Not available.
UV 0 out of 12
Pollen 7.00 out of 12
Air Quality Not available.
Flu Activity Not available.
METAR KOMK 200653Z AUTO 34007KT 10SM CLR 22/07 A2967 RMK AO2 SLP036 T02220072

More Conditions Fewer Conditions

10-Day Weather Forecast

Almanac

Astronomy

Aug. 20, 2014 Rise Set
Actual Time 5:57 AM PDT 7:59 PM PDT
Civil Twilight 5:24 AM PDT 8:33 PM PDT
Nautical Twilight 4:42 AM PDT 9:14 PM PDT
Astronomical Twilight 3:56 AM PDT 10:00 PM PDT
Moon 1:33 AM PDT 4:56 PM PDT
Length of Visible Light 15h 08m
Length of Day
14h 01m
Tomorrow will be 3m 13s shorter.
Waning Crescent, 24% of the Moon is Illuminated
Today
Waning Crescent
Aug 25
New
Sep 2
First Quarter
Sep 8
Full
Sep 15
Last Quarter

Community

WunderPhotos

Upload Photos

1,745,592 photos uploaded!

Nearby

Snow Depth

Station Depth Elevation
Moses Mountain 0 in 5300 ft
Sentinel Butte 0 in 4920 ft
Trough 0 in 5300 ft
Grouse Camp 0 in 5380 ft
Blewett Pass 0 in 4270 ft

Earthquake Activity

City Distance Mag. Time & Date
No recent earthquake activity has been reported nearby.
Minimum magnitude displayed is 2.5.

Coastal Water Temperatures

Place Temperature
No Stations Reporting

Nearby Weather Stations